createdAt,value
2023-01-06T00:01:20.733Z,10.70
2023-01-06T00:03:52.221Z,10.70
2023-01-06T00:06:20.369Z,10.70
2023-01-06T00:08:46.982Z,10.70
2023-01-06T00:11:14.938Z,10.70
2023-01-06T00:13:41.923Z,10.70
2023-01-06T00:16:11.537Z,10.70
2023-01-06T00:18:38.480Z,10.70
2023-01-06T00:21:06.194Z,10.70
2023-01-06T00:23:34.102Z,10.70
2023-01-06T00:26:01.292Z,10.70
2023-01-06T00:28:28.002Z,10.70
2023-01-06T00:30:54.679Z,10.70
2023-01-06T00:33:21.804Z,10.70
2023-01-06T00:35:48.439Z,10.70
2023-01-06T00:38:15.233Z,10.70
2023-01-06T00:40:41.899Z,10.70
2023-01-06T00:43:08.759Z,10.70
2023-01-06T00:45:35.324Z,10.60
2023-01-06T00:48:01.955Z,10.60
2023-01-06T00:50:28.591Z,10.60
2023-01-06T00:52:55.209Z,10.60
2023-01-06T00:55:21.895Z,10.60
2023-01-06T00:57:52.629Z,10.60
2023-01-06T01:00:19.935Z,10.60
2023-01-06T01:02:46.645Z,10.60
2023-01-06T01:05:13.497Z,10.60
2023-01-06T01:07:41.172Z,10.60
2023-01-06T01:10:08.609Z,10.60
2023-01-06T01:12:35.262Z,10.60
2023-01-06T01:15:01.948Z,10.60
2023-01-06T01:17:30.162Z,10.60
2023-01-06T01:19:58.148Z,10.60
2023-01-06T01:22:26.772Z,10.60
2023-01-06T01:24:53.467Z,10.60
2023-01-06T01:27:20.319Z,10.60
2023-01-06T01:29:46.934Z,10.60
2023-01-06T01:32:13.527Z,10.60
2023-01-06T01:34:40.165Z,10.60
2023-01-06T01:37:06.912Z,10.60
2023-01-06T01:39:33.603Z,10.60
2023-01-06T01:42:00.754Z,10.60
2023-01-06T01:45:17.002Z,10.60
2023-01-06T01:47:48.515Z,10.60
2023-01-06T01:50:30.088Z,10.60
2023-01-06T01:53:03.043Z,10.60
2023-01-06T01:55:30.951Z,10.50
2023-01-06T01:58:02.944Z,10.50
2023-01-06T02:00:29.560Z,10.50
2023-01-06T02:02:56.880Z,10.50
2023-01-06T02:05:25.815Z,10.60
2023-01-06T02:07:53.271Z,10.50
2023-01-06T02:10:22.544Z,10.50
2023-01-06T02:12:52.618Z,10.50
2023-01-06T02:15:27.242Z,10.50
2023-01-06T02:18:27.057Z,10.50
2023-01-06T02:21:11.826Z,10.50
2023-01-06T02:24:31.838Z,10.50
2023-01-06T02:27:35.387Z,10.50
2023-01-06T02:30:13.978Z,10.50
2023-01-06T02:33:14.188Z,10.50
2023-01-06T02:36:08.674Z,10.50
2023-01-06T02:38:45.497Z,10.50
2023-01-06T02:41:24.156Z,10.50
2023-01-06T02:44:11.222Z,10.50
2023-01-06T02:46:52.788Z,10.50
2023-01-06T02:49:36.714Z,10.50
2023-01-06T02:52:12.316Z,10.50
2023-01-06T02:54:49.890Z,10.50
2023-01-06T02:57:28.778Z,10.50
2023-01-06T03:00:14.114Z,10.50
2023-01-06T03:02:44.483Z,10.50
2023-01-06T03:05:16.191Z,10.50
2023-01-06T03:07:45.898Z,10.50
2023-01-06T03:10:14.854Z,10.40
2023-01-06T03:12:49.653Z,10.50
2023-01-06T03:15:16.403Z,10.50
2023-01-06T03:17:43.358Z,10.50
2023-01-06T03:20:11.225Z,10.40
2023-01-06T03:22:39.085Z,10.40
2023-01-06T03:25:07.725Z,10.40
2023-01-06T03:27:34.680Z,10.50
2023-01-06T03:30:02.911Z,10.40
2023-01-06T03:32:48.365Z,10.40
2023-01-06T03:35:56.056Z,10.40
2023-01-06T03:38:45.236Z,10.50
2023-01-06T03:41:45.091Z,10.40
2023-01-06T03:44:19.305Z,10.50
2023-01-06T03:46:53.490Z,10.40
2023-01-06T03:49:31.500Z,10.40
2023-01-06T03:52:04.618Z,10.40
2023-01-06T03:54:56.562Z,10.40
2023-01-06T03:57:32.733Z,10.40
2023-01-06T04:00:06.382Z,10.40
2023-01-06T04:02:34.862Z,10.40
2023-01-06T04:05:18.077Z,10.40
2023-01-06T04:07:45.273Z,10.40
2023-01-06T04:10:13.789Z,10.40
2023-01-06T04:12:41.110Z,10.40
2023-01-06T04:15:13.387Z,10.40
2023-01-06T04:17:41.342Z,10.40
2023-01-06T04:20:10.795Z,10.40
2023-01-06T04:22:37.395Z,10.40
2023-01-06T04:25:05.101Z,10.40
2023-01-06T04:27:31.746Z,10.40
2023-01-06T04:29:58.564Z,10.40
2023-01-06T04:32:25.275Z,10.40
2023-01-06T04:34:51.863Z,10.40
2023-01-06T04:37:20.634Z,10.40
2023-01-06T04:39:48.308Z,10.40
2023-01-06T04:42:15.368Z,10.40
2023-01-06T04:44:42.644Z,10.40
2023-01-06T04:47:10.843Z,10.40
2023-01-06T04:49:37.612Z,10.40
2023-01-06T04:52:05.573Z,10.40
2023-01-06T04:54:32.169Z,10.40
2023-01-06T04:56:58.763Z,10.40
2023-01-06T04:59:25.359Z,10.40
2023-01-06T05:01:52.159Z,10.40
2023-01-06T05:04:19.069Z,10.40
2023-01-06T05:06:45.898Z,10.40
2023-01-06T05:09:12.566Z,10.40
2023-01-06T05:11:39.167Z,10.40
2023-01-06T05:14:05.788Z,10.40
2023-01-06T05:16:34.624Z,10.40
2023-01-06T05:19:01.890Z,10.40
2023-01-06T05:21:32.500Z,10.40
2023-01-06T05:24:00.015Z,10.40
2023-01-06T05:26:27.820Z,10.40
2023-01-06T05:28:55.507Z,10.40
2023-01-06T05:31:22.683Z,10.40
2023-01-06T05:33:49.391Z,10.40
2023-01-06T05:36:17.945Z,10.40
2023-01-06T05:38:45.760Z,10.40
2023-01-06T05:41:12.702Z,10.40
2023-01-06T05:43:39.316Z,10.40
2023-01-06T05:46:10.798Z,10.40
2023-01-06T05:48:38.353Z,10.40
2023-01-06T05:51:11.427Z,10.40
2023-01-06T05:53:40.811Z,10.40
2023-01-06T05:56:09.554Z,10.40
2023-01-06T05:58:37.201Z,10.40
2023-01-06T06:01:04.756Z,10.40
2023-01-06T06:03:32.528Z,10.40
2023-01-06T06:06:04.388Z,10.40
2023-01-06T06:08:31.077Z,10.30
2023-01-06T06:11:03.025Z,10.30
2023-01-06T06:13:29.745Z,10.40
2023-01-06T06:16:06.305Z,10.40
2023-01-06T06:18:33.002Z,10.40
2023-01-06T06:21:03.796Z,10.30
2023-01-06T06:23:31.801Z,10.40
2023-01-06T06:25:58.436Z,10.30
2023-01-06T06:28:25.142Z,10.40
2023-01-06T06:30:52.853Z,10.40
2023-01-06T06:33:20.885Z,10.40
2023-01-06T06:35:57.635Z,10.40
2023-01-06T06:38:24.257Z,10.40
2023-01-06T06:40:50.935Z,10.40
2023-01-06T06:43:17.626Z,10.40
2023-01-06T06:45:45.167Z,10.40
2023-01-06T06:48:11.843Z,10.40
2023-01-06T06:50:38.489Z,10.40
2023-01-06T06:53:05.255Z,10.40
2023-01-06T06:55:32.813Z,10.40
2023-01-06T06:57:59.585Z,10.40
2023-01-06T07:00:26.352Z,10.40
2023-01-06T07:02:53.065Z,10.40
2023-01-06T07:05:19.720Z,10.40
2023-01-06T07:07:46.350Z,10.40
2023-01-06T07:10:15.724Z,10.40
2023-01-06T07:12:42.377Z,10.30
2023-01-06T07:15:09.713Z,10.30
2023-01-06T07:17:36.331Z,10.30
2023-01-06T07:20:03.261Z,10.30
2023-01-06T07:22:29.875Z,10.40
2023-01-06T07:24:56.497Z,10.40
2023-01-06T07:27:23.104Z,10.40
2023-01-06T07:29:49.724Z,10.40
2023-01-06T07:32:16.400Z,10.40
2023-01-06T07:34:43.006Z,10.40
2023-01-06T07:37:09.651Z,10.40
2023-01-06T07:39:36.263Z,10.40
2023-01-06T07:42:02.883Z,10.30
2023-01-06T07:44:29.482Z,10.30
2023-01-06T07:46:56.082Z,10.40
2023-01-06T07:49:22.744Z,10.40
2023-01-06T07:51:49.315Z,10.40
2023-01-06T07:54:15.950Z,10.40
2023-01-06T07:56:45.679Z,10.40
2023-01-06T07:59:12.354Z,10.40
2023-01-06T08:01:39.077Z,10.40
2023-01-06T08:04:05.747Z,10.40
2023-01-06T08:06:32.363Z,10.40
2023-01-06T08:08:59.007Z,10.40
2023-01-06T08:11:25.699Z,10.40
2023-01-06T08:13:52.331Z,10.40
2023-01-06T08:16:18.937Z,10.40
2023-01-06T08:18:45.612Z,10.40
2023-01-06T08:21:12.710Z,10.40
2023-01-06T08:23:39.551Z,10.40
2023-01-06T08:26:07.480Z,10.40
2023-01-06T08:28:34.788Z,10.40
2023-01-06T08:31:02.103Z,10.40
2023-01-06T08:33:29.158Z,10.40
2023-01-06T08:36:03.784Z,10.40
2023-01-06T08:38:31.388Z,10.40
2023-01-06T08:40:58.771Z,10.40
2023-01-06T08:43:26.171Z,10.40
2023-01-06T08:45:53.462Z,10.40
2023-01-06T08:48:20.162Z,10.40
2023-01-06T08:50:46.836Z,10.50
2023-01-06T08:53:13.496Z,10.40
2023-01-06T08:55:41.250Z,10.50
2023-01-06T08:58:09.133Z,10.50
2023-01-06T09:00:40.330Z,10.50
2023-01-06T09:03:07.207Z,10.50
2023-01-06T09:05:33.836Z,10.50
2023-01-06T09:08:00.586Z,10.50
2023-01-06T09:10:27.236Z,10.50
2023-01-06T09:12:53.849Z,10.50
2023-01-06T09:15:20.460Z,10.60
2023-01-06T09:17:47.114Z,10.60
2023-01-06T09:20:13.773Z,10.60
2023-01-06T09:22:40.562Z,10.70
2023-01-06T09:25:07.608Z,10.70
2023-01-06T09:27:34.218Z,10.80
2023-01-06T09:30:00.839Z,10.80
2023-01-06T09:32:27.467Z,10.90
2023-01-06T09:34:54.082Z,10.90
2023-01-06T09:37:20.721Z,10.90
2023-01-06T09:39:47.408Z,10.90
2023-01-06T09:42:32.293Z,10.90
2023-01-06T09:45:01.706Z,11.00
2023-01-06T09:47:42.968Z,11.10
2023-01-06T09:50:15.054Z,11.10
2023-01-06T09:52:46.886Z,11.10
2023-01-06T09:55:24.433Z,11.20
2023-01-06T09:58:05.893Z,11.30
2023-01-06T10:00:47.392Z,11.30
2023-01-06T10:03:22.555Z,11.30
2023-01-06T10:05:55.286Z,11.30
2023-01-06T10:08:48.217Z,11.30
2023-01-06T10:11:33.300Z,11.40
2023-01-06T10:14:19.264Z,11.40
2023-01-06T10:16:58.056Z,11.40
2023-01-06T10:19:46.090Z,11.50
2023-01-06T10:22:28.979Z,11.60
2023-01-06T10:25:15.230Z,11.60
2023-01-06T10:27:46.425Z,11.70
2023-01-06T10:30:34.017Z,11.60
2023-01-06T10:33:04.876Z,11.70
2023-01-06T10:35:32.967Z,11.80
2023-01-06T10:38:04.549Z,11.90
2023-01-06T10:40:32.323Z,11.90
2023-01-06T10:43:06.606Z,12.00
2023-01-06T10:45:44.684Z,11.90
2023-01-06T10:48:25.611Z,11.90
2023-01-06T10:50:52.242Z,12.00
2023-01-06T10:53:18.987Z,12.10
2023-01-06T10:55:57.992Z,12.10
2023-01-06T10:58:34.765Z,12.10
2023-01-06T11:01:12.222Z,12.10
2023-01-06T11:03:42.905Z,12.20
2023-01-06T11:06:23.412Z,12.20
2023-01-06T11:08:50.049Z,12.20
2023-01-06T11:11:28.170Z,12.30
2023-01-06T11:14:02.800Z,12.40
2023-01-06T11:16:33.567Z,12.60
2023-01-06T11:19:03.477Z,12.70
2023-01-06T11:21:41.896Z,12.70
2023-01-06T11:24:18.885Z,12.70
2023-01-06T11:26:52.567Z,12.60
2023-01-06T11:29:27.099Z,12.70
2023-01-06T11:31:54.623Z,12.70
2023-01-06T11:34:24.595Z,12.70
2023-01-06T11:36:52.414Z,12.70
2023-01-06T11:39:27.857Z,12.80
2023-01-06T11:41:56.447Z,12.90
2023-01-06T11:44:30.201Z,13.00
2023-01-06T11:47:01.582Z,13.10
2023-01-06T11:49:56.360Z,13.20
2023-01-06T11:52:27.149Z,13.30
2023-01-06T11:55:08.855Z,13.30
2023-01-06T11:58:01.059Z,13.30
2023-01-06T12:00:46.373Z,13.30
2023-01-06T12:03:35.300Z,13.30
2023-01-06T12:06:14.005Z,13.30
2023-01-06T12:08:53.857Z,13.40
2023-01-06T12:11:48.459Z,13.40
2023-01-06T12:14:28.641Z,13.40
2023-01-06T12:16:59.018Z,13.50
2023-01-06T12:19:36.690Z,13.50
2023-01-06T12:22:04.031Z,13.40
2023-01-06T12:24:33.510Z,13.40
2023-01-06T12:27:05.044Z,13.40
2023-01-06T12:29:33.468Z,13.40
2023-01-06T12:32:21.274Z,13.40
2023-01-06T12:34:51.802Z,13.40
2023-01-06T12:37:40.116Z,13.40
2023-01-06T12:40:23.458Z,13.40
2023-01-06T12:43:01.219Z,13.40
2023-01-06T12:45:46.700Z,13.40
2023-01-06T12:48:44.150Z,13.30
2023-01-06T12:51:24.139Z,13.30
2023-01-06T12:54:03.235Z,13.30
2023-01-06T12:57:00.350Z,13.30
2023-01-06T12:59:33.001Z,13.30
2023-01-06T13:02:08.465Z,13.30
2023-01-06T13:04:47.260Z,13.40
2023-01-06T13:07:32.264Z,13.40
2023-01-06T13:10:20.086Z,13.30
2023-01-06T13:13:24.965Z,13.30
2023-01-06T13:15:54.219Z,13.40
2023-01-06T13:18:32.068Z,13.40
2023-01-06T13:21:01.629Z,13.40
2023-01-06T13:23:44.177Z,13.30
2023-01-06T13:26:41.284Z,13.40
2023-01-06T13:29:33.504Z,13.40
2023-01-06T13:32:30.864Z,13.40
2023-01-06T13:35:27.507Z,13.40
2023-01-06T13:38:34.085Z,13.50
2023-01-06T13:41:03.764Z,13.50
2023-01-06T13:43:33.404Z,13.40
2023-01-06T13:46:13.970Z,13.30
2023-01-06T13:48:50.491Z,13.30
2023-01-06T13:51:21.317Z,13.30
2023-01-06T13:53:50.288Z,13.40
2023-01-06T13:56:16.898Z,13.50
2023-01-06T13:58:44.961Z,13.50
2023-01-06T14:01:20.876Z,13.50
2023-01-06T14:03:49.965Z,13.40
2023-01-06T14:06:22.655Z,13.40
2023-01-06T14:09:00.486Z,13.40
2023-01-06T14:11:33.813Z,13.50
2023-01-06T14:14:05.964Z,13.50
2023-01-06T14:16:42.933Z,13.50
2023-01-06T14:19:30.120Z,13.40
2023-01-06T14:22:15.187Z,13.50
2023-01-06T14:24:48.625Z,13.40
2023-01-06T14:27:15.520Z,13.40
2023-01-06T14:29:42.163Z,13.40
2023-01-06T14:32:11.244Z,13.40
2023-01-06T14:34:49.614Z,13.50
2023-01-06T14:37:17.654Z,13.40
2023-01-06T14:39:49.857Z,13.40
2023-01-06T14:42:21.833Z,13.40
2023-01-06T14:44:52.064Z,13.40
2023-01-06T14:47:29.227Z,13.40
2023-01-06T14:50:34.828Z,13.40
2023-01-06T14:53:36.561Z,13.40
2023-01-06T14:56:04.928Z,13.40
2023-01-06T14:58:32.855Z,13.40
2023-01-06T15:01:00.258Z,13.40
2023-01-06T15:03:28.663Z,13.30
2023-01-06T15:06:20.945Z,13.30
2023-01-06T15:08:47.873Z,13.30
2023-01-06T15:11:28.166Z,13.30
2023-01-06T15:13:55.244Z,13.30
2023-01-06T15:16:40.147Z,13.30
2023-01-06T15:19:14.549Z,13.30
2023-01-06T15:21:43.009Z,13.30
2023-01-06T15:24:31.709Z,13.30
2023-01-06T15:27:22.045Z,13.30
2023-01-06T15:29:57.045Z,13.20
2023-01-06T15:32:26.437Z,13.20
2023-01-06T15:34:56.904Z,13.20
2023-01-06T15:37:31.124Z,13.20
2023-01-06T15:39:58.151Z,13.20
2023-01-06T15:42:26.380Z,13.20
2023-01-06T15:45:00.790Z,13.20
2023-01-06T15:47:35.115Z,13.20
2023-01-06T15:50:16.606Z,13.10
2023-01-06T15:53:05.669Z,13.10
2023-01-06T15:55:36.211Z,13.10
2023-01-06T15:58:23.215Z,13.10
2023-01-06T16:01:00.771Z,13.00
2023-01-06T16:03:30.385Z,13.00
2023-01-06T16:06:30.104Z,12.90
2023-01-06T16:09:25.876Z,12.90
2023-01-06T16:12:04.541Z,12.90
2023-01-06T16:14:36.925Z,12.90
2023-01-06T16:17:31.902Z,12.90
2023-01-06T16:20:05.596Z,12.80
2023-01-06T16:22:40.795Z,12.80
2023-01-06T16:25:27.296Z,12.80
2023-01-06T16:27:57.062Z,12.70
2023-01-06T16:30:26.959Z,12.70
2023-01-06T16:33:03.404Z,12.70
2023-01-06T16:35:32.910Z,12.80
2023-01-06T16:38:00.041Z,12.70
2023-01-06T16:40:28.600Z,12.70
2023-01-06T16:43:00.718Z,12.70
2023-01-06T16:45:40.848Z,12.70
2023-01-06T16:48:07.633Z,12.60
2023-01-06T16:50:39.886Z,12.60
2023-01-06T16:53:06.499Z,12.60
2023-01-06T16:55:33.227Z,12.50
2023-01-06T16:58:00.812Z,12.50
2023-01-06T17:00:28.427Z,12.50
2023-01-06T17:02:55.281Z,12.50
2023-01-06T17:05:29.618Z,12.50
2023-01-06T17:08:01.460Z,12.50
2023-01-06T17:10:28.415Z,12.50
2023-01-06T17:13:22.265Z,12.50
2023-01-06T17:15:57.306Z,12.50
2023-01-06T17:18:31.667Z,12.50
2023-01-06T17:21:00.420Z,12.50
2023-01-06T17:23:27.203Z,12.50
2023-01-06T17:26:01.696Z,12.40
2023-01-06T17:28:31.186Z,12.40
2023-01-06T17:30:58.948Z,12.40
2023-01-06T17:33:28.033Z,12.40
2023-01-06T17:35:56.306Z,12.40
2023-01-06T17:38:25.213Z,12.40
2023-01-06T17:40:51.999Z,12.40
2023-01-06T17:43:38.973Z,12.40
2023-01-06T17:46:22.993Z,12.30
2023-01-06T17:48:57.284Z,12.30
2023-01-06T17:51:23.971Z,12.30
2023-01-06T17:54:09.124Z,12.30
2023-01-06T17:56:35.762Z,12.30
2023-01-06T17:59:13.662Z,12.30
2023-01-06T18:01:40.413Z,12.30
2023-01-06T18:04:12.320Z,12.30
2023-01-06T18:06:42.846Z,12.20
2023-01-06T18:09:19.165Z,12.20
2023-01-06T18:11:51.376Z,12.20
2023-01-06T18:14:42.575Z,12.20
2023-01-06T18:17:21.023Z,12.20
2023-01-06T18:19:47.721Z,12.20
2023-01-06T18:22:24.870Z,12.20
2023-01-06T18:24:55.145Z,12.20
2023-01-06T18:27:34.673Z,12.10
2023-01-06T18:30:22.879Z,12.10
2023-01-06T18:32:51.379Z,12.10
2023-01-06T18:35:28.692Z,12.10
2023-01-06T18:38:02.478Z,12.10
2023-01-06T18:40:30.759Z,12.10
2023-01-06T18:43:06.226Z,12.10
2023-01-06T18:45:37.922Z,12.10
2023-01-06T18:48:07.513Z,12.10
2023-01-06T18:50:42.953Z,12.10
2023-01-06T18:53:22.494Z,12.10
2023-01-06T18:55:55.272Z,12.10
2023-01-06T18:58:39.034Z,12.00
2023-01-06T19:01:13.206Z,12.00
2023-01-06T19:03:56.328Z,12.10
2023-01-06T19:06:28.567Z,12.00
2023-01-06T19:08:56.197Z,12.00
2023-01-06T19:11:25.058Z,12.00
2023-01-06T19:13:59.211Z,12.00
2023-01-06T19:16:43.495Z,12.00
2023-01-06T19:19:10.211Z,12.00
2023-01-06T19:21:38.498Z,12.00
2023-01-06T19:24:29.748Z,12.00
2023-01-06T19:26:58.592Z,12.00
2023-01-06T19:29:35.251Z,12.00
2023-01-06T19:32:13.943Z,11.90
2023-01-06T19:34:41.001Z,11.90
2023-01-06T19:37:18.316Z,11.90
2023-01-06T19:39:48.743Z,11.90
2023-01-06T19:42:24.505Z,12.00
2023-01-06T19:44:54.417Z,11.90
2023-01-06T19:47:31.724Z,11.90
2023-01-06T19:50:06.096Z,11.90
2023-01-06T19:52:38.359Z,11.90
2023-01-06T19:55:16.746Z,11.90
2023-01-06T19:57:49.737Z,11.90
2023-01-06T20:00:47.911Z,11.90
2023-01-06T20:03:36.085Z,11.90
2023-01-06T20:06:04.196Z,11.90
2023-01-06T20:08:30.864Z,11.80
2023-01-06T20:10:57.533Z,11.90
2023-01-06T20:13:24.187Z,11.90
2023-01-06T20:15:50.904Z,11.90
2023-01-06T20:18:17.529Z,11.80
2023-01-06T20:20:44.258Z,11.80
2023-01-06T20:23:11.388Z,11.90
2023-01-06T20:25:38.089Z,11.80
2023-01-06T20:28:04.870Z,11.80
2023-01-06T20:30:31.498Z,11.80
2023-01-06T20:32:58.176Z,11.80
2023-01-06T20:35:24.874Z,11.80
2023-01-06T20:37:51.501Z,11.80
2023-01-06T20:40:18.433Z,11.80
2023-01-06T20:42:45.455Z,11.80
2023-01-06T20:45:12.608Z,11.80
2023-01-06T20:47:39.395Z,11.80
2023-01-06T20:50:07.484Z,11.80
2023-01-06T20:52:34.806Z,11.80
2023-01-06T20:55:01.510Z,11.80
2023-01-06T20:57:28.178Z,11.80
2023-01-06T20:59:54.808Z,11.70
2023-01-06T21:02:21.501Z,11.70
2023-01-06T21:04:48.244Z,11.70
2023-01-06T21:07:14.941Z,11.70
2023-01-06T21:09:41.546Z,11.70
2023-01-06T21:12:08.314Z,11.70
2023-01-06T21:14:35.437Z,11.70
2023-01-06T21:17:03.827Z,11.60
2023-01-06T21:19:30.642Z,11.60
2023-01-06T21:21:57.237Z,11.70
2023-01-06T21:24:23.936Z,11.60
2023-01-06T21:26:50.705Z,11.70
2023-01-06T21:29:17.274Z,11.60
2023-01-06T21:31:43.993Z,11.60
2023-01-06T21:34:10.773Z,11.60
2023-01-06T21:36:37.415Z,11.60
2023-01-06T21:39:07.207Z,11.60
2023-01-06T21:41:51.885Z,11.60
2023-01-06T21:44:18.489Z,11.60
2023-01-06T21:46:45.061Z,11.60
2023-01-06T21:49:11.673Z,11.60
2023-01-06T21:51:39.472Z,11.60
2023-01-06T21:54:06.594Z,11.60
2023-01-06T21:56:34.965Z,11.60
2023-01-06T21:59:01.805Z,11.60
2023-01-06T22:01:28.483Z,11.60
2023-01-06T22:03:56.073Z,11.60
2023-01-06T22:06:24.244Z,11.60
2023-01-06T22:08:53.024Z,11.60
2023-01-06T22:11:19.916Z,11.60
2023-01-06T22:13:46.884Z,11.60
2023-01-06T22:16:13.860Z,11.60
2023-01-06T22:18:40.593Z,11.60
2023-01-06T22:21:07.499Z,11.60
2023-01-06T22:23:35.420Z,11.50
2023-01-06T22:26:02.093Z,11.50
2023-01-06T22:28:28.687Z,11.50
2023-01-06T22:30:55.718Z,11.50
2023-01-06T22:33:24.007Z,11.50
2023-01-06T22:35:50.714Z,11.50
2023-01-06T22:38:17.383Z,11.50
2023-01-06T22:40:44.009Z,11.50
2023-01-06T22:43:10.641Z,11.50
2023-01-06T22:45:37.352Z,11.50
2023-01-06T22:48:04.038Z,11.50
2023-01-06T22:50:30.659Z,11.40
2023-01-06T22:52:57.349Z,11.40
2023-01-06T22:55:24.327Z,11.40
2023-01-06T22:57:50.934Z,11.40
2023-01-06T23:00:19.018Z,11.40
2023-01-06T23:02:45.808Z,11.40
2023-01-06T23:05:12.539Z,11.40
2023-01-06T23:07:41.389Z,11.40
2023-01-06T23:10:09.903Z,11.40
2023-01-06T23:12:37.966Z,11.40
2023-01-06T23:15:05.080Z,11.40
2023-01-06T23:17:31.774Z,11.40
2023-01-06T23:19:58.442Z,11.40
2023-01-06T23:22:25.077Z,11.40
2023-01-06T23:24:51.879Z,11.30
2023-01-06T23:27:18.653Z,11.40
2023-01-06T23:29:46.067Z,11.40
2023-01-06T23:32:12.815Z,11.30
2023-01-06T23:34:39.482Z,11.30
2023-01-06T23:37:06.416Z,11.30
2023-01-06T23:39:33.049Z,11.30
2023-01-06T23:41:59.617Z,11.30
2023-01-06T23:44:26.328Z,11.30
2023-01-06T23:46:52.925Z,11.30
2023-01-06T23:49:19.591Z,11.30
2023-01-06T23:51:46.409Z,11.20
2023-01-06T23:54:13.922Z,11.30
2023-01-06T23:56:41.083Z,11.30
2023-01-06T23:59:10.533Z,11.30
